createdAt,value
2023-04-06T00:00:55.765Z,-3.02
2023-04-06T00:03:57.391Z,-3.07
2023-04-06T00:06:59.182Z,-3.09
2023-04-06T00:10:00.842Z,-3.11
2023-04-06T00:13:02.500Z,-3.12
2023-04-06T00:16:04.441Z,-3.14
2023-04-06T00:19:06.128Z,-3.13
2023-04-06T00:22:08.100Z,-3.13
2023-04-06T00:25:09.899Z,-3.15
2023-04-06T00:28:11.613Z,-3.16
2023-04-06T00:31:17.671Z,-3.19
2023-04-06T00:34:19.355Z,-3.25
2023-04-06T00:37:20.979Z,-3.30
2023-04-06T00:40:22.642Z,-3.37
2023-04-06T00:43:24.638Z,-3.43
2023-04-06T00:46:26.377Z,-3.46
2023-04-06T00:49:31.087Z,-3.48
2023-04-06T00:52:32.811Z,-3.49
2023-04-06T00:55:34.410Z,-3.50
2023-04-06T00:58:36.400Z,-3.53
2023-04-06T01:01:38.043Z,-3.55
2023-04-06T01:04:39.670Z,-3.61
2023-04-06T01:07:41.362Z,-3.73
2023-04-06T01:10:42.918Z,-3.81
2023-04-06T01:13:44.434Z,-3.88
2023-04-06T01:16:46.067Z,-3.93
2023-04-06T01:19:47.656Z,-3.99
2023-04-06T01:22:49.243Z,-4.04
2023-04-06T01:25:50.908Z,-4.06
2023-04-06T01:28:52.574Z,-4.06
2023-04-06T01:31:54.182Z,-4.06
2023-04-06T01:34:55.870Z,-4.04
2023-04-06T01:37:57.593Z,-4.04
2023-04-06T01:40:59.114Z,-4.06
2023-04-06T01:44:00.885Z,-4.10
2023-04-06T01:47:02.483Z,-4.13
2023-04-06T01:50:04.480Z,-4.15
2023-04-06T01:53:06.080Z,-4.16
2023-04-06T01:56:07.785Z,-4.19
2023-04-06T01:59:09.563Z,-4.21
2023-04-06T02:02:11.617Z,-4.24
2023-04-06T02:05:13.254Z,-4.25
2023-04-06T02:08:14.868Z,-4.29
2023-04-06T02:11:16.528Z,-4.33
2023-04-06T02:14:18.121Z,-4.36
2023-04-06T02:17:19.743Z,-4.39
2023-04-06T02:20:21.440Z,-4.42
2023-04-06T02:23:23.027Z,-4.47
2023-04-06T02:26:24.615Z,-4.52
2023-04-06T02:29:26.215Z,-4.56
2023-04-06T02:32:27.786Z,-4.60
2023-04-06T02:35:31.278Z,-4.63
2023-04-06T02:38:32.907Z,-4.65
2023-04-06T02:41:34.493Z,-4.69
2023-04-06T02:44:36.008Z,-4.74
2023-04-06T02:47:37.574Z,-4.79
2023-04-06T02:50:39.120Z,-4.84
2023-04-06T02:53:41.476Z,-4.85
2023-04-06T02:56:43.069Z,-4.84
2023-04-06T02:59:44.737Z,-4.84
2023-04-06T03:02:46.563Z,-4.82
2023-04-06T03:05:48.210Z,-4.83
2023-04-06T03:08:49.912Z,-4.83
2023-04-06T03:11:51.570Z,-4.83
2023-04-06T03:14:53.109Z,-4.81
2023-04-06T03:17:54.707Z,-4.80
2023-04-06T03:20:56.532Z,-4.78
2023-04-06T03:23:58.140Z,-4.76
2023-04-06T03:26:59.711Z,-4.74
2023-04-06T03:30:01.326Z,-4.70
2023-04-06T03:33:03.060Z,-4.67
2023-04-06T03:36:05.021Z,-4.63
2023-04-06T03:39:07.048Z,-4.59
2023-04-06T03:42:08.947Z,-4.55
2023-04-06T03:45:10.794Z,-4.49
2023-04-06T03:48:12.307Z,-4.42
2023-04-06T03:51:13.833Z,-4.31
2023-04-06T03:54:15.366Z,-4.21
2023-04-06T03:57:16.894Z,-4.10
2023-04-06T04:00:18.559Z,-3.98
2023-04-06T04:03:20.291Z,-3.87
2023-04-06T04:06:21.926Z,-3.84
2023-04-06T04:09:23.592Z,-3.97
2023-04-06T04:12:25.127Z,-4.12
2023-04-06T04:15:26.680Z,-4.17
2023-04-06T04:18:28.268Z,-4.16
2023-04-06T04:21:31.015Z,-4.12
2023-04-06T04:24:32.640Z,-4.12
2023-04-06T04:27:34.139Z,-4.15
2023-04-06T04:30:35.707Z,-4.18
2023-04-06T04:33:37.378Z,-4.16
2023-04-06T04:36:38.917Z,-4.14
2023-04-06T04:39:40.779Z,-4.10
2023-04-06T04:42:42.374Z,-4.07
2023-04-06T04:45:43.901Z,-4.06
2023-04-06T04:48:45.588Z,-3.98
2023-04-06T04:51:47.171Z,-3.82
2023-04-06T04:54:48.742Z,-3.76
2023-04-06T04:57:50.282Z,-3.73
2023-04-06T05:00:51.874Z,-3.66
2023-04-06T05:03:53.695Z,-3.58
2023-04-06T05:07:07.866Z,-3.50
2023-04-06T05:10:09.900Z,-3.40
2023-04-06T05:13:11.628Z,-3.32
2023-04-06T05:16:13.439Z,-3.21
2023-04-06T05:19:15.152Z,-3.09
2023-04-06T05:22:16.656Z,-2.99
2023-04-06T05:25:18.278Z,-2.86
2023-04-06T05:28:20.015Z,-2.75
2023-04-06T05:31:21.760Z,-2.66
2023-04-06T05:34:23.239Z,-2.52
2023-04-06T05:37:24.832Z,-2.37
2023-04-06T05:40:26.427Z,-2.25
2023-04-06T05:43:27.976Z,-2.15
2023-04-06T05:46:29.693Z,-2.05
2023-04-06T05:49:31.280Z,-1.95
2023-04-06T05:52:32.853Z,-1.86
2023-04-06T05:55:34.343Z,-1.77
2023-04-06T05:58:35.869Z,-1.65
2023-04-06T06:01:37.618Z,-1.55
2023-04-06T06:04:39.245Z,-1.43
2023-04-06T06:07:40.792Z,-1.33
2023-04-06T06:10:42.313Z,-1.25
2023-04-06T06:13:43.932Z,-1.18
2023-04-06T06:16:45.476Z,-1.14
2023-04-06T06:19:47.060Z,-1.08
2023-04-06T06:22:48.692Z,-1.04
2023-04-06T06:25:50.271Z,-0.99
2023-04-06T06:28:51.996Z,-0.95
2023-04-06T06:31:53.537Z,-0.88
2023-04-06T06:34:55.112Z,-0.79
2023-04-06T06:37:56.748Z,-0.69
2023-04-06T06:40:58.857Z,-0.61
2023-04-06T06:44:00.325Z,-0.55
2023-04-06T06:47:01.837Z,-0.49
2023-04-06T06:50:03.703Z,-0.41
2023-04-06T06:53:05.312Z,-0.35
2023-04-06T06:56:07.104Z,-0.31
2023-04-06T06:59:08.628Z,-0.24
2023-04-06T07:02:10.189Z,-0.15
2023-04-06T07:05:24.347Z,-0.07
2023-04-06T07:08:29.525Z,-0.01
2023-04-06T07:11:31.220Z,0.06
2023-04-06T07:14:32.861Z,0.16
2023-04-06T07:17:34.516Z,0.25
2023-04-06T07:20:36.159Z,0.32
2023-04-06T07:23:38.088Z,0.36
2023-04-06T07:26:39.710Z,0.40
2023-04-06T07:29:41.330Z,0.51
2023-04-06T07:32:43.032Z,0.65
2023-04-06T07:35:44.788Z,0.81
2023-04-06T07:38:46.360Z,0.98
2023-04-06T07:41:48.053Z,1.14
2023-04-06T07:44:49.555Z,1.31
2023-04-06T07:47:51.396Z,1.48
2023-04-06T07:50:53.053Z,1.60
2023-04-06T07:53:54.601Z,1.68
2023-04-06T07:56:56.148Z,1.74
2023-04-06T07:59:57.841Z,1.88
2023-04-06T08:02:59.530Z,2.02
2023-04-06T08:06:01.224Z,2.24
2023-04-06T08:09:03.079Z,2.38
2023-04-06T08:12:04.799Z,2.42
2023-04-06T08:15:06.563Z,2.41
2023-04-06T08:18:09.502Z,2.29
2023-04-06T08:21:11.113Z,2.22
2023-04-06T08:24:13.515Z,2.16
2023-04-06T08:27:15.136Z,2.13
2023-04-06T08:30:16.823Z,2.05
2023-04-06T08:33:18.560Z,1.90
2023-04-06T08:36:19.972Z,1.75
2023-04-06T08:39:21.478Z,1.72
2023-04-06T08:42:26.661Z,1.68
2023-04-06T08:45:28.308Z,1.60
2023-04-06T08:48:30.242Z,1.49
2023-04-06T08:51:31.786Z,1.55
2023-04-06T08:54:33.396Z,1.60
2023-04-06T08:57:37.123Z,1.50
2023-04-06T09:00:39.789Z,1.42
2023-04-06T09:03:42.229Z,1.42
2023-04-06T09:06:44.440Z,1.43
2023-04-06T09:09:46.251Z,1.46
2023-04-06T09:12:47.791Z,1.48
2023-04-06T09:16:03.020Z,1.47
2023-04-06T09:19:05.416Z,1.49
2023-04-06T09:22:07.752Z,1.55
2023-04-06T09:25:10.270Z,1.64
2023-04-06T09:28:11.846Z,1.80
2023-04-06T09:31:21.976Z,1.89
2023-04-06T09:34:23.720Z,1.81
2023-04-06T09:37:29.257Z,1.66
2023-04-06T09:40:31.033Z,1.64
2023-04-06T09:43:32.955Z,1.64
2023-04-06T09:46:54.748Z,1.70
2023-04-06T09:49:59.923Z,1.87
2023-04-06T09:53:02.173Z,1.97
2023-04-06T09:56:05.916Z,1.99
2023-04-06T09:59:11.245Z,2.00
2023-04-06T10:02:22.700Z,2.08
2023-04-06T10:05:35.053Z,2.04
2023-04-06T10:08:39.506Z,1.85
2023-04-06T10:11:41.824Z,1.68
2023-04-06T10:14:44.005Z,1.53
2023-04-06T10:17:46.025Z,1.43
2023-04-06T10:20:52.588Z,1.37
2023-04-06T10:24:02.492Z,1.32
2023-04-06T10:27:05.074Z,1.30
2023-04-06T10:30:07.813Z,1.29
2023-04-06T10:33:16.338Z,1.25
2023-04-06T10:36:26.602Z,1.26
2023-04-06T10:39:28.136Z,1.24
2023-04-06T10:42:38.853Z,1.19
2023-04-06T10:45:41.487Z,1.21
2023-04-06T10:48:47.153Z,1.19
2023-04-06T10:51:53.094Z,1.09
2023-04-06T10:54:54.703Z,1.03
2023-04-06T10:57:56.307Z,0.98
2023-04-06T11:00:57.871Z,0.90
2023-04-06T11:03:59.682Z,0.78
2023-04-06T11:07:01.551Z,0.71
2023-04-06T11:13:08.037Z,0.61
2023-04-06T11:16:14.464Z,0.56
2023-04-06T11:19:16.128Z,0.56
2023-04-06T11:22:17.638Z,0.61
2023-04-06T11:25:19.816Z,0.64
2023-04-06T11:28:21.487Z,0.60
2023-04-06T11:31:26.305Z,0.59
2023-04-06T11:34:30.058Z,0.58
2023-04-06T11:37:31.747Z,0.49
2023-04-06T11:40:33.222Z,0.42
2023-04-06T11:43:34.766Z,0.34
2023-04-06T11:46:36.392Z,0.23
2023-04-06T11:49:39.737Z,0.12
2023-04-06T11:52:42.161Z,0.05
2023-04-06T11:55:43.904Z,0.02
2023-04-06T11:58:45.617Z,0.04
2023-04-06T12:01:47.214Z,0.04
2023-04-06T12:04:48.887Z,0.04
2023-04-06T12:07:50.486Z,0.04
2023-04-06T12:10:52.299Z,0.03
2023-04-06T12:13:54.392Z,0.04
2023-04-06T12:16:55.980Z,0.06
2023-04-06T12:20:05.108Z,0.10
2023-04-06T12:23:11.424Z,0.13
2023-04-06T12:26:13.379Z,0.15
2023-04-06T12:29:15.306Z,0.12
2023-04-06T12:32:16.854Z,0.17
2023-04-06T12:35:18.475Z,0.23
2023-04-06T12:38:20.072Z,0.23
2023-04-06T12:41:21.666Z,0.20
2023-04-06T12:44:24.755Z,0.15
2023-04-06T12:47:27.212Z,0.11
2023-04-06T12:50:29.075Z,0.10
2023-04-06T12:53:31.081Z,0.07
2023-04-06T12:56:32.768Z,0.04
2023-04-06T12:59:34.456Z,0.01
2023-04-06T13:02:36.252Z,-0.01
2023-04-06T13:05:45.102Z,0.03
2023-04-06T13:08:46.653Z,0.10
2023-04-06T13:11:48.228Z,0.11
2023-04-06T13:14:49.849Z,0.16
2023-04-06T13:17:51.532Z,0.21
2023-04-06T13:20:53.467Z,0.25
2023-04-06T13:23:55.056Z,0.18
2023-04-06T13:26:56.706Z,0.16
2023-04-06T13:29:58.273Z,0.12
2023-04-06T13:32:59.950Z,0.10
2023-04-06T13:36:01.609Z,0.08
2023-04-06T13:39:03.250Z,0.06
2023-04-06T13:42:04.822Z,0.03
2023-04-06T13:45:07.585Z,0.02
2023-04-06T13:48:09.166Z,-0.01
2023-04-06T13:51:12.246Z,-0.01
2023-04-06T13:54:13.785Z,0.01
2023-04-06T13:57:15.330Z,0.00
2023-04-06T14:00:17.039Z,-0.01
2023-04-06T14:03:18.609Z,0.01
2023-04-06T14:06:31.411Z,0.04
2023-04-06T14:09:34.422Z,0.06
2023-04-06T14:12:36.044Z,0.02
2023-04-06T14:15:37.654Z,-0.03
2023-04-06T14:18:39.326Z,-0.06
2023-04-06T14:21:41.015Z,-0.13
2023-04-06T14:24:42.615Z,-0.15
2023-04-06T14:27:44.706Z,-0.18
2023-04-06T14:30:46.407Z,-0.19
2023-04-06T14:33:48.030Z,-0.20
2023-04-06T14:36:49.640Z,-0.20
2023-04-06T14:39:51.377Z,-0.20
2023-04-06T14:42:52.929Z,-0.18
2023-04-06T14:45:54.588Z,-0.18
2023-04-06T14:48:56.692Z,-0.17
2023-04-06T14:51:58.244Z,-0.14
2023-04-06T14:54:59.929Z,-0.12
2023-04-06T14:58:02.158Z,-0.12
2023-04-06T15:01:04.165Z,-0.16
2023-04-06T15:04:06.143Z,-0.16
2023-04-06T15:07:07.771Z,-0.18
2023-04-06T15:10:10.965Z,-0.21
2023-04-06T15:13:13.958Z,-0.24
2023-04-06T15:16:15.625Z,-0.26
2023-04-06T15:19:17.254Z,-0.28
2023-04-06T15:22:18.825Z,-0.28
2023-04-06T15:25:20.437Z,-0.28
2023-04-06T15:28:22.043Z,-0.29
2023-04-06T15:31:35.798Z,-0.29
2023-04-06T15:34:39.714Z,-0.29
2023-04-06T15:37:41.233Z,-0.28
2023-04-06T15:40:47.088Z,-0.30
2023-04-06T15:43:49.648Z,-0.30
2023-04-06T15:46:51.202Z,-0.32
2023-04-06T15:49:52.816Z,-0.36
2023-04-06T15:52:54.513Z,-0.42
2023-04-06T15:56:04.139Z,-0.46
2023-04-06T15:59:05.755Z,-0.50
2023-04-06T16:02:07.505Z,-0.52
2023-04-06T16:05:09.626Z,-0.55
2023-04-06T16:08:11.283Z,-0.59
2023-04-06T16:11:12.930Z,-0.62
2023-04-06T16:14:14.571Z,-0.65
2023-04-06T16:17:16.123Z,-0.67
2023-04-06T16:20:17.810Z,-0.68
2023-04-06T16:23:19.473Z,-0.69
2023-04-06T16:26:21.900Z,-0.70
2023-04-06T16:29:23.710Z,-0.71
2023-04-06T16:32:25.242Z,-0.71
2023-04-06T16:35:26.774Z,-0.72
2023-04-06T16:38:28.323Z,-0.76
2023-04-06T16:41:29.839Z,-0.82
2023-04-06T16:44:31.463Z,-0.87
2023-04-06T16:47:33.220Z,-0.88
2023-04-06T16:50:35.744Z,-0.91
2023-04-06T16:53:38.453Z,-0.96
2023-04-06T16:56:40.065Z,-1.05
2023-04-06T16:59:41.633Z,-1.14
2023-04-06T17:02:47.244Z,-1.16
2023-04-06T17:05:49.180Z,-1.08
2023-04-06T17:08:50.816Z,-0.83
2023-04-06T17:11:53.419Z,-0.77
2023-04-06T17:14:55.275Z,-0.84
2023-04-06T17:17:56.844Z,-0.86
2023-04-06T17:20:59.119Z,-0.86
2023-04-06T17:24:00.681Z,-0.87
2023-04-06T17:27:02.373Z,-0.88
2023-04-06T17:30:04.515Z,-0.91
2023-04-06T17:33:06.281Z,-0.94
2023-04-06T17:36:08.341Z,-1.02
2023-04-06T17:39:09.958Z,-1.10
2023-04-06T17:42:11.530Z,-1.15
2023-04-06T17:45:13.580Z,-0.93
2023-04-06T17:48:15.155Z,-0.76
2023-04-06T17:51:16.850Z,-0.86
2023-04-06T17:54:18.390Z,-0.93
2023-04-06T17:57:20.742Z,-0.96
2023-04-06T18:00:22.704Z,-0.94
2023-04-06T18:03:24.327Z,-0.94
2023-04-06T18:06:26.044Z,-0.96
2023-04-06T18:09:30.247Z,-1.02
2023-04-06T18:12:32.774Z,-1.11
2023-04-06T18:15:35.502Z,-1.16
2023-04-06T18:18:37.233Z,-1.02
2023-04-06T18:21:39.089Z,-0.76
2023-04-06T18:24:43.002Z,-0.75
2023-04-06T18:27:45.094Z,-0.83
2023-04-06T18:30:47.088Z,-0.85
2023-04-06T18:33:49.184Z,-0.86
2023-04-06T18:36:51.371Z,-0.87
2023-04-06T18:39:53.925Z,-0.86
2023-04-06T18:42:55.532Z,-0.82
2023-04-06T18:45:57.380Z,-0.84
2023-04-06T18:48:58.978Z,-0.89
2023-04-06T18:52:00.745Z,-0.99
2023-04-06T18:55:02.339Z,-1.08
2023-04-06T18:58:04.079Z,-1.08
2023-04-06T19:01:06.059Z,-0.85
2023-04-06T19:04:08.090Z,-0.71
2023-04-06T19:07:10.013Z,-0.84
2023-04-06T19:10:11.819Z,-0.92
2023-04-06T19:13:13.473Z,-0.95
2023-04-06T19:16:15.880Z,-0.97
2023-04-06T19:19:18.941Z,-1.00
2023-04-06T19:22:20.644Z,-1.06
2023-04-06T19:25:22.653Z,-1.14
2023-04-06T19:28:24.505Z,-1.20
2023-04-06T19:31:26.178Z,-1.19
2023-04-06T19:34:28.258Z,-1.04
2023-04-06T19:37:29.918Z,-0.84
2023-04-06T19:40:31.547Z,-0.86
2023-04-06T19:43:52.014Z,-0.94
2023-04-06T19:46:53.611Z,-0.97
2023-04-06T19:49:55.317Z,-0.99
2023-04-06T19:52:57.006Z,-1.01
2023-04-06T19:55:58.748Z,-1.04
2023-04-06T19:59:00.372Z,-1.09
2023-04-06T20:02:02.196Z,-1.15
2023-04-06T20:05:04.127Z,-1.22
2023-04-06T20:08:05.694Z,-1.25
2023-04-06T20:11:07.280Z,-1.12
2023-04-06T20:14:08.955Z,-1.04
2023-04-06T20:17:10.532Z,-1.01
2023-04-06T20:20:12.193Z,-0.99
2023-04-06T20:23:13.944Z,-0.98
2023-04-06T20:26:15.428Z,-0.97
2023-04-06T20:29:17.131Z,-0.96
2023-04-06T20:32:18.888Z,-0.95
2023-04-06T20:35:20.637Z,-0.93
2023-04-06T20:38:32.300Z,-0.93
2023-04-06T20:41:35.007Z,-0.92
2023-04-06T20:44:36.567Z,-0.92
2023-04-06T20:47:38.436Z,-0.90
2023-04-06T20:50:40.003Z,-0.89
2023-04-06T20:53:41.557Z,-0.88
2023-04-06T20:56:43.423Z,-0.88
2023-04-06T20:59:44.935Z,-0.88
2023-04-06T21:02:46.804Z,-0.89
2023-04-06T21:05:52.957Z,-0.90
2023-04-06T21:08:54.584Z,-0.92
2023-04-06T21:11:56.126Z,-0.92
2023-04-06T21:14:57.717Z,-0.92
2023-04-06T21:17:59.417Z,-0.93
2023-04-06T21:21:01.019Z,-0.93
2023-04-06T21:24:02.778Z,-0.93
2023-04-06T21:27:04.324Z,-0.93
2023-04-06T21:30:06.543Z,-0.94
2023-04-06T21:33:08.180Z,-0.94
2023-04-06T21:36:09.923Z,-0.93
2023-04-06T21:39:11.473Z,-0.93
2023-04-06T21:42:13.098Z,-0.93
2023-04-06T21:45:14.821Z,-0.92
2023-04-06T21:48:16.794Z,-0.92
2023-04-06T21:51:19.559Z,-0.91
2023-04-06T21:54:21.346Z,-0.91
2023-04-06T21:57:23.847Z,-0.91
2023-04-06T22:00:25.501Z,-0.90
2023-04-06T22:03:27.858Z,-0.90
2023-04-06T22:06:29.769Z,-0.90
2023-04-06T22:09:31.881Z,-0.90
2023-04-06T22:12:33.532Z,-0.90
2023-04-06T22:15:35.129Z,-0.90
2023-04-06T22:18:38.854Z,-0.89
2023-04-06T22:21:40.821Z,-0.89
2023-04-06T22:24:42.391Z,-0.89
2023-04-06T22:27:43.973Z,-0.88
2023-04-06T22:30:45.595Z,-0.87
2023-04-06T22:33:47.111Z,-0.87
2023-04-06T22:36:48.882Z,-0.87
2023-04-06T22:39:50.406Z,-0.86
2023-04-06T22:42:51.983Z,-0.87
2023-04-06T22:45:53.654Z,-0.88
2023-04-06T22:48:55.208Z,-0.88
2023-04-06T22:51:56.813Z,-0.87
2023-04-06T22:54:58.373Z,-0.85
2023-04-06T22:57:59.985Z,-0.85
2023-04-06T23:01:01.596Z,-0.85
2023-04-06T23:04:03.331Z,-0.85
2023-04-06T23:07:05.003Z,-0.84
2023-04-06T23:10:06.988Z,-0.85
2023-04-06T23:13:09.750Z,-0.84
2023-04-06T23:16:11.298Z,-0.84
2023-04-06T23:19:13.168Z,-0.83
2023-04-06T23:22:14.641Z,-0.83
2023-04-06T23:25:16.385Z,-0.83
2023-04-06T23:28:18.061Z,-0.83
2023-04-06T23:31:19.644Z,-0.82
2023-04-06T23:34:21.327Z,-0.82
2023-04-06T23:37:22.858Z,-0.83
2023-04-06T23:40:24.450Z,-0.82
2023-04-06T23:43:25.987Z,-0.82
2023-04-06T23:46:27.583Z,-0.81
2023-04-06T23:49:29.236Z,-0.81
2023-04-06T23:52:30.772Z,-0.80
2023-04-06T23:55:32.480Z,-0.79
2023-04-06T23:58:34.035Z,-0.79
